Time;durP1;ratioP1;P1;durP2;ratioP2;P2;SDS_P1;SDS_P2;PMS_P1;PMS_P2;Temp;Humidity;BMP_temperature;BMP_pressure;BME280_temperature;BME280_humidity;BME280_pressure;Samples;Min_cycle;Max_cycle;Signal;HPM_P1;HPM_P2
2021/04/22 00:02:10;;;;;;;4.22;1.90;;;11.40;49.20;;;;;;2301185;53;20992;-65
2021/04/22 00:04:36;;;;;;;3.45;1.80;;;11.30;49.20;;;;;;2301273;53;21793;-64
2021/04/22 00:07:03;;;;;;;3.35;2.00;;;11.20;49.20;;;;;;2546161;53;20973;-64
2021/04/22 00:09:35;;;;;;;;;;;11.20;49.30;;;;;;2294456;54;22017;-65
2021/04/22 00:12:01;;;;;;;3.00;1.55;;;11.20;49.50;;;;;;2312153;53;20174;-64
2021/04/22 00:14:27;;;;;;;2.90;1.60;;;11.20;49.40;;;;;;2320609;53;20925;-63
2021/04/22 00:16:53;;;;;;;3.60;1.70;;;11.20;49.50;;;;;;2323971;53;20940;-63
2021/04/22 00:19:20;;;;;;;3.10;1.50;;;11.10;49.50;;;;;;2317186;53;20976;-65
2021/04/22 00:21:47;;;;;;;2.92;1.75;;;11.10;49.60;;;;;;2295378;53;21469;-65
2021/04/22 00:24:18;;;;;;;3.75;2.05;;;11.00;49.60;;;;;;2293757;53;22010;-65
2021/04/22 00:26:44;;;;;;;6.15;2.40;;;11.00;49.70;;;;;;2533077;53;20957;-63
2021/04/22 00:29:11;;;;;;;4.65;2.33;;;11.00;49.70;;;;;;2536300;53;20956;-65
2021/04/22 00:31:37;;;;;;;3.55;2.05;;;11.10;50.00;;;;;;2289314;54;21645;-65
2021/04/22 00:34:03;;;;;;;4.55;2.12;;;11.00;50.00;;;;;;2416783;53;21655;-64
2021/04/22 00:36:30;;;;;;;4.82;2.62;;;11.00;50.00;;;;;;2282513;53;21019;-64
2021/04/22 00:38:57;;;;;;;3.90;2.00;;;10.90;50.10;;;;;;2300677;53;21473;-65
2021/04/22 00:41:24;;;;;;;3.47;1.95;;;10.90;50.20;;;;;;2306039;53;20924;-63
2021/04/22 00:43:53;;;;;;;4.12;2.42;;;10.90;50.30;;;;;;2315294;53;21030;-64
2021/04/22 00:46:20;;;;;;;3.83;2.20;;;10.90;50.40;;;;;;2290161;54;20957;-64
2021/04/22 00:48:46;;;;;;;3.40;1.83;;;10.90;50.40;;;;;;2306386;53;21542;-65
2021/04/22 00:51:13;;;;;;;3.40;1.83;;;10.90;50.50;;;;;;2325136;53;20960;-64
2021/04/22 00:53:39;;;;;;;4.65;2.20;;;10.90;50.60;;;;;;2317901;53;21472;-64
2021/04/22 00:56:06;;;;;;;3.80;2.10;;;10.90;50.70;;;;;;2287709;54;20960;-65
2021/04/22 00:58:32;;;;;;;3.75;2.00;;;10.90;50.80;;;;;;2299833;53;20989;-64
2021/04/22 01:00:59;;;;;;;3.62;1.90;;;10.90;50.80;;;;;;2314912;54;21977;-65
2021/04/22 01:03:26;;;;;;;3.53;1.95;;;10.90;50.80;;;;;;2313306;53;22362;-65
2021/04/22 01:06:00;;;;;;;3.62;2.20;;;10.90;50.90;;;;;;2287431;53;20940;-65
2021/04/22 01:08:26;;;;;;;3.92;2.20;;;10.90;50.80;;;;;;2275381;53;22607;-66
2021/04/22 01:10:53;;;;;;;4.35;2.28;;;11.00;51.00;;;;;;2510247;53;22181;-65
2021/04/22 01:13:20;;;;;;;3.42;1.75;;;11.00;51.00;;;;;;2246639;53;21880;-64
2021/04/22 01:15:46;;;;;;;4.10;2.37;;;11.00;50.90;;;;;;2257573;54;21841;-64
2021/04/22 01:18:12;;;;;;;4.28;2.80;;;11.00;50.90;;;;;;2239571;53;22330;-65
2021/04/22 01:20:47;;;;;;;4.35;2.37;;;11.10;51.10;;;;;;2207179;54;20984;-66
2021/04/22 01:23:13;;;;;;;3.37;2.00;;;11.10;51.20;;;;;;2240818;53;21119;-64
2021/04/22 01:25:44;;;;;;;3.92;2.05;;;11.10;51.20;;;;;;2273776;53;21052;-63
2021/04/22 01:28:12;;;;;;;3.30;1.85;;;11.10;51.30;;;;;;2266475;54;20964;-65
2021/04/22 01:30:41;;;;;;;4.95;2.50;;;11.10;51.30;;;;;;2272772;53;21801;-64
2021/04/22 01:33:08;;;;;;;4.22;2.58;;;11.20;51.40;;;;;;2262512;53;21610;-65
2021/04/22 01:35:36;;;;;;;3.50;1.95;;;11.20;51.40;;;;;;2281423;53;21931;-65
2021/04/22 01:38:03;;;;;;;4.15;2.33;;;11.20;51.30;;;;;;2281745;53;21004;-64
2021/04/22 01:40:29;;;;;;;5.72;2.67;;;11.20;51.30;;;;;;2266658;53;21398;-64
2021/04/22 01:42:57;;;;;;;4.18;2.40;;;11.10;51.20;;;;;;2275089;53;22015;-66
2021/04/22 01:45:23;;;;;;;4.28;2.42;;;11.10;51.40;;;;;;2281029;53;22032;-65
2021/04/22 01:47:49;;;;;;;4.22;2.40;;;11.10;51.40;;;;;;2271976;53;20960;-64
2021/04/22 01:50:20;;;;;;;5.57;2.30;;;11.10;51.40;;;;;;2272390;53;22107;-65
2021/04/22 01:52:46;;;;;;;4.20;2.05;;;11.10;51.40;;;;;;2429534;54;21961;-65
2021/04/22 01:55:22;;;;;;;3.90;2.05;;;11.00;51.30;;;;;;2223636;54;20969;-64
2021/04/22 01:57:50;;;;;;;3.80;2.20;;;11.00;51.40;;;;;;2237328;53;21961;-64
2021/04/22 02:00:23;;;;;;;5.00;2.60;;;11.00;51.40;;;;;;2268584;53;21012;-65
2021/04/22 02:02:49;;;;;;;4.50;2.37;;;11.00;51.60;;;;;;2265014;53;21071;-65
2021/04/22 02:05:18;;;;;;;3.35;2.12;;;10.90;51.50;;;;;;2261289;53;21775;-65
2021/04/22 02:07:45;;;;;;;4.80;2.55;;;10.90;51.50;;;;;;2231701;54;21096;-64
2021/04/22 02:10:12;;;;;;;3.60;1.87;;;10.90;52.10;;;;;;2256953;53;20964;-65
2021/04/22 02:12:38;;;;;;;3.72;2.30;;;10.80;51.40;;;;;;2253490;53;20964;-65
2021/04/22 02:15:06;;;;;;;3.95;2.37;;;10.80;51.40;;;;;;2247873;53;21952;-63
2021/04/22 02:17:32;;;;;;;4.78;2.05;;;10.80;51.50;;;;;;2255606;53;22098;-64
2021/04/22 02:19:59;;;;;;;4.20;2.20;;;10.70;51.50;;;;;;2498604;53;21725;-64
2021/04/22 02:22:25;;;;;;;3.70;2.03;;;10.70;51.50;;;;;;2246481;53;20952;-63
2021/04/22 02:24:51;;;;;;;3.55;1.90;;;10.60;51.50;;;;;;2500241;53;22433;-65
2021/04/22 02:27:18;;;;;;;3.95;1.90;;;10.60;51.50;;;;;;2294881;53;20973;-65
2021/04/22 02:29:45;;;;;;;4.37;2.33;;;10.50;51.50;;;;;;2276110;54;21032;-65
2021/04/22 02:32:11;;;;;;;3.28;1.95;;;10.50;51.60;;;;;;2301609;53;20969;-64
2021/04/22 02:34:39;;;;;;;3.40;2.00;;;10.40;51.60;;;;;;2480909;53;21453;-64
2021/04/22 02:37:05;;;;;;;4.75;2.05;;;10.40;51.60;;;;;;2300778;53;21805;-64
2021/04/22 02:39:32;;;;;;;4.10;1.98;;;10.40;51.60;;;;;;2302427;53;20928;-63
2021/04/22 02:42:00;;;;;;;3.45;2.00;;;10.30;51.60;;;;;;2290908;53;21468;-65
2021/04/22 02:44:32;;;;;;;3.15;1.60;;;10.30;51.80;;;;;;2299285;53;20929;-64
2021/04/22 02:46:59;;;;;;;3.75;2.12;;;10.30;51.90;;;;;;2294219;53;21001;-65
2021/04/22 02:49:25;;;;;;;6.53;2.17;;;10.20;51.80;;;;;;2296224;53;20952;-65
2021/04/22 02:51:51;;;;;;;4.12;2.40;;;10.20;51.90;;;;;;2273410;54;21032;-63
2021/04/22 02:54:18;;;;;;;3.45;2.15;;;10.20;52.10;;;;;;2498871;53;21650;-63
2021/04/22 02:56:44;;;;;;;3.35;1.90;;;10.20;52.30;;;;;;2278412;53;21374;-65
2021/04/22 02:59:11;;;;;;;3.87;1.98;;;10.20;52.40;;;;;;2241641;53;20971;-64
2021/04/22 03:01:38;;;;;;;4.55;2.53;;;10.20;52.40;;;;;;2265616;53;21473;-63
2021/04/22 03:04:05;;;;;;;4.10;2.45;;;10.20;53.10;;;;;;2262934;54;20980;-65
2021/04/22 03:06:32;;;;;;;4.00;2.15;;;10.30;52.70;;;;;;2261820;53;21837;-65
2021/04/22 03:08:59;;;;;;;2.92;1.73;;;10.30;52.90;;;;;;2495529;53;20917;-65
2021/04/22 03:11:26;;;;;;;3.92;2.12;;;10.30;52.80;;;;;;2263020;53;22017;-65
2021/04/22 03:13:53;;;;;;;4.18;2.10;;;10.30;52.80;;;;;;2482604;53;20961;-63
2021/04/22 03:16:19;;;;;;;3.78;2.05;;;10.30;52.80;;;;;;2241417;53;20968;-65
2021/04/22 03:18:46;;;;;;;4.47;2.12;;;10.30;52.80;;;;;;2239488;53;21500;-64
2021/04/22 03:21:13;;;;;;;3.35;2.00;;;10.30;52.80;;;;;;2251907;53;21016;-63
2021/04/22 03:23:39;;;;;;;3.45;2.00;;;10.30;52.90;;;;;;2268459;53;21036;-64
2021/04/22 03:26:05;;;;;;;4.03;2.22;;;10.30;52.90;;;;;;2300201;53;20956;-63
2021/04/22 03:28:33;;;;;;;3.42;1.80;;;10.30;52.90;;;;;;2304252;53;21075;-63
2021/04/22 03:31:01;;;;;;;3.90;2.05;;;10.30;53.00;;;;;;2540276;53;20945;-64
2021/04/22 03:33:28;;;;;;;4.15;2.10;;;10.30;53.00;;;;;;2539757;53;21496;-64
2021/04/22 03:35:54;;;;;;;3.37;1.83;;;10.40;53.20;;;;;;2301000;53;20949;-63
2021/04/22 03:38:21;;;;;;;4.93;2.55;;;10.40;53.20;;;;;;2293213;53;21024;-63
2021/04/22 03:40:47;;;;;;;4.22;2.37;;;10.40;53.20;;;;;;2293028;53;21007;-64
2021/04/22 03:43:14;;;;;;;4.43;2.20;;;10.40;53.30;;;;;;2292121;53;21020;-64
2021/04/22 03:45:40;;;;;;;4.03;2.15;;;10.50;53.40;;;;;;2274329;53;20969;-65
2021/04/22 03:48:07;;;;;;;4.70;2.10;;;10.50;53.40;;;;;;2287606;53;22071;-65
2021/04/22 03:50:36;;;;;;;3.55;2.25;;;10.50;53.40;;;;;;2277449;53;21021;-63
2021/04/22 03:53:03;;;;;;;5.20;2.30;;;10.50;53.50;;;;;;2264699;53;21060;-64
2021/04/22 03:55:30;;;;;;;4.03;2.28;;;10.60;53.50;;;;;;2247921;54;20968;-65
2021/04/22 03:57:58;;;;;;;4.65;1.95;;;10.60;53.60;;;;;;2255284;53;23058;-66
2021/04/22 04:00:24;;;;;;;4.15;2.30;;;10.60;53.50;;;;;;2373851;54;20969;-64
2021/04/22 04:02:50;;;;;;;4.00;2.30;;;10.70;53.70;;;;;;2253878;53;20972;-65
2021/04/22 04:05:17;;;;;;;5.03;2.37;;;10.70;53.60;;;;;;2241706;53;22211;-66
2021/04/22 04:07:44;;;;;;;3.70;2.08;;;10.70;53.60;;;;;;2410795;53;21076;-65
2021/04/22 04:10:10;;;;;;;5.82;2.15;;;10.80;53.70;;;;;;2266862;53;21076;-64
2021/04/22 04:12:38;;;;;;;3.65;2.10;;;10.80;53.70;;;;;;2253934;53;20985;-65
2021/04/22 04:15:06;;;;;;;3.95;2.42;;;10.80;53.70;;;;;;2234244;54;21027;-64
2021/04/22 04:17:33;;;;;;;3.50;2.08;;;10.80;53.80;;;;;;2470892;53;20953;-65
2021/04/22 04:19:59;;;;;;;3.95;2.30;;;10.80;53.80;;;;;;2242227;53;21008;-65
2021/04/22 04:22:25;;;;;;;6.07;2.40;;;10.80;53.70;;;;;;2266844;54;21425;-64
2021/04/22 04:24:52;;;;;;;4.47;2.62;;;10.90;53.90;;;;;;2243237;53;20925;-64
2021/04/22 04:27:19;;;;;;;4.22;2.45;;;10.90;54.20;;;;;;2473450;53;21935;-66
2021/04/22 04:29:46;;;;;;;4.28;2.37;;;10.90;53.90;;;;;;2298749;53;20953;-64
2021/04/22 04:32:12;;;;;;;4.47;2.80;;;10.90;53.90;;;;;;2234781;53;21000;-63
2021/04/22 04:34:38;;;;;;;4.05;2.25;;;11.00;54.00;;;;;;2229595;53;21762;-64
2021/04/22 04:37:10;;;;;;;5.43;2.75;;;11.00;54.10;;;;;;2225452;54;21099;-66
2021/04/22 04:39:37;;;;;;;5.43;2.65;;;11.00;54.10;;;;;;2223866;53;22019;-63
2021/04/22 04:42:04;;;;;;;5.22;3.30;;;11.10;54.20;;;;;;2215171;53;21996;-65
2021/04/22 04:44:31;;;;;;;5.22;3.25;;;11.10;54.30;;;;;;2240132;53;21048;-65
2021/04/22 04:47:01;;;;;;;4.28;3.05;;;11.10;54.40;;;;;;2202992;55;22620;-66
2021/04/22 04:51:51;;;;;;;4.62;2.62;;;11.10;54.30;;;;;;2404189;53;24735;-65
2021/04/22 04:54:17;;;;;;;4.50;2.72;;;11.20;54.30;;;;;;2159394;53;22304;-65
2021/04/22 04:56:44;;;;;;;16.40;2.80;;;11.30;54.40;;;;;;2250913;53;21946;-64
2021/04/22 04:59:14;;;;;;;4.72;3.03;;;11.20;54.30;;;;;;2154670;56;21001;-65
2021/04/22 05:01:41;;;;;;;4.53;2.83;;;11.30;54.50;;;;;;2385996;53;21082;-65
2021/04/22 05:04:07;;;;;;;5.45;3.37;;;11.30;54.60;;;;;;2165562;54;22549;-64
2021/04/22 05:06:35;;;;;;;5.82;4.25;;;11.30;54.50;;;;;;2407557;54;21757;-64
2021/04/22 05:09:02;;;;;;;9.32;4.68;;;11.30;54.50;;;;;;2418113;53;20952;-64
2021/04/22 05:11:28;;;;;;;5.75;3.60;;;11.40;54.60;;;;;;2370807;53;22756;-64
2021/04/22 05:13:57;;;;;;;5.45;3.35;;;11.40;54.60;;;;;;2412402;53;20999;-65
2021/04/22 05:16:24;;;;;;;9.27;4.87;;;11.40;54.60;;;;;;2190335;53;20960;-64
2021/04/22 05:18:51;;;;;;;8.73;3.90;;;11.40;54.50;;;;;;2183233;53;21048;-64
2021/04/22 05:21:18;;;;;;;7.20;3.72;;;11.40;55.20;;;;;;2167014;53;21820;-65
2021/04/22 05:23:48;;;;;;;6.87;3.90;;;11.30;54.60;;;;;;2116118;53;22037;-64
2021/04/22 05:26:16;;;;;;;8.48;4.37;;;11.40;54.60;;;;;;2109601;53;21763;-65
2021/04/22 05:28:44;;;;;;;9.60;4.57;;;11.40;54.60;;;;;;2279588;53;21600;-64
2021/04/22 05:31:12;;;;;;;7.72;4.20;;;11.50;54.80;;;;;;2291829;53;21589;-64
2021/04/22 05:33:40;;;;;;;6.97;4.47;;;11.50;54.80;;;;;;2094530;54;22151;-65
2021/04/22 05:36:10;;;;;;;7.45;4.05;;;11.50;54.80;;;;;;2052511;53;21821;-65
2021/04/22 05:38:38;;;;;;;8.85;4.03;;;11.60;54.90;;;;;;2030314;55;22058;-65
2021/04/22 05:41:09;;;;;;;8.65;4.03;;;11.60;54.80;;;;;;2049851;54;22017;-65
2021/04/22 05:43:37;;;;;;;8.05;4.07;;;11.60;54.80;;;;;;2199367;55;22380;-65
2021/04/22 05:46:04;;;;;;;7.82;4.57;;;11.70;54.90;;;;;;2028018;54;21628;-65
2021/04/22 05:48:32;;;;;;;6.20;3.60;;;11.70;54.90;;;;;;2097240;54;22257;-64
2021/04/22 05:51:01;;;;;;;6.00;3.78;;;11.80;55.00;;;;;;1973281;55;22121;-65
2021/04/22 05:53:28;;;;;;;7.78;4.45;;;11.80;54.90;;;;;;2069887;54;21690;-66
2021/04/22 05:55:54;;;;;;;8.32;4.10;;;11.80;54.90;;;;;;2108908;54;21042;-64
2021/04/22 05:58:21;;;;;;;7.35;3.90;;;11.90;55.10;;;;;;2289054;54;20963;-63
2021/04/22 06:00:51;;;;;;;7.78;4.35;;;11.90;55.10;;;;;;2088101;54;22195;-66
2021/04/22 06:03:19;;;;;;;7.97;4.47;;;11.90;55.30;;;;;;2296377;54;21082;-64
2021/04/22 06:05:46;;;;;;;9.18;4.82;;;12.00;55.10;;;;;;2141444;54;22348;-65
2021/04/22 06:08:13;;;;;;;7.00;4.82;;;12.00;55.10;;;;;;2123290;54;22236;-65
2021/04/22 06:10:39;;;;;;;8.93;6.05;;;12.00;55.20;;;;;;2350789;54;22427;-65
2021/04/22 06:13:08;;;;;;;9.75;6.37;;;12.10;55.30;;;;;;2138062;54;22256;-66
2021/04/22 06:15:35;;;;;;;11.02;6.93;;;12.10;55.30;;;;;;2160656;54;21071;-65
2021/04/22 06:18:04;;;;;;;10.43;6.78;;;12.20;55.50;;;;;;2347514;54;20987;-64
2021/04/22 06:20:31;;;;;;;10.80;7.15;;;12.20;55.60;;;;;;2125361;54;22138;-65
2021/04/22 06:23:00;;;;;;;11.40;7.22;;;12.30;55.70;;;;;;2149921;54;21998;-65
2021/04/22 06:25:30;;;;;;;12.37;8.25;;;12.30;55.70;;;;;;2301553;54;22080;-66
2021/04/22 06:28:01;;;;;;;13.02;7.82;;;12.40;55.80;;;;;;2332849;54;22275;-65
2021/04/22 06:30:29;;;;;;;12.30;8.30;;;12.50;55.80;;;;;;2092588;54;22127;-66
2021/04/22 06:33:03;;;;;;;11.73;8.27;;;12.50;55.70;;;;;;2034466;54;21787;-66
2021/04/22 06:35:35;;;;;;;11.50;8.52;;;12.60;55.90;;;;;;2057355;54;21725;-65
2021/04/22 06:38:05;;;;;;;15.20;9.75;;;12.70;55.90;;;;;;2046575;54;20982;-64
2021/04/22 06:40:32;;;;;;;13.62;8.95;;;12.70;55.90;;;;;;2082849;54;21759;-66
2021/04/22 06:43:05;;;;;;;14.95;10.18;;;12.80;55.90;;;;;;2157835;54;21570;-64
2021/04/22 06:45:33;;;;;;;13.10;8.65;;;12.90;56.00;;;;;;2152945;54;21990;-66
2021/04/22 06:48:03;;;;;;;13.80;8.80;;;13.00;56.00;;;;;;2156312;54;22168;-66
2021/04/22 06:50:29;;;;;;;13.95;9.02;;;13.00;56.00;;;;;;2190879;54;20931;-65
2021/04/22 06:52:57;;;;;;;14.48;9.85;;;13.10;56.20;;;;;;2205891;54;21008;-63
2021/04/22 06:55:23;;;;;;;16.92;10.23;;;13.30;56.90;;;;;;2205223;54;20935;-65
2021/04/22 06:57:50;;;;;;;11.88;8.85;;;13.40;57.30;;;;;;2215610;54;21399;-67
2021/04/22 07:00:26;;;;;;;14.13;9.15;;;13.60;57.90;;;;;;2242330;54;20959;-66
2021/04/22 07:02:52;;;;;;;16.83;9.85;;;13.90;58.30;;;;;;2278580;54;20904;-67
2021/04/22 07:05:19;;;;;;;15.48;9.98;;;14.20;58.80;;;;;;2285369;54;20974;-67
2021/04/22 07:07:45;;;;;;;15.63;11.50;;;14.50;59.10;;;;;;2268957;54;20983;-67
2021/04/22 07:10:12;;;;;;;15.55;10.02;;;14.80;59.20;;;;;;2270082;54;20947;-68
2021/04/22 07:12:38;;;;;;;13.13;9.07;;;15.20;59.50;;;;;;2260129;54;21051;-67
2021/04/22 07:15:08;;;;;;;14.90;9.82;;;15.50;59.60;;;;;;2483561;54;20955;-68
2021/04/22 07:17:37;;;;;;;14.38;10.88;;;15.90;59.40;;;;;;2471243;54;20931;-67
2021/04/22 07:20:12;;;;;;;14.95;9.43;;;16.20;59.10;;;;;;2463250;54;20972;-67
2021/04/22 07:22:51;;;;;;;16.58;10.23;;;16.60;58.50;;;;;;2462570;54;21810;-67
2021/04/22 07:25:19;;;;;;;13.00;9.20;;;16.80;58.10;;;;;;2204689;54;21007;-68
2021/04/22 07:27:45;;;;;;;13.05;9.85;;;17.10;57.70;;;;;;2175966;54;20952;-65
2021/04/22 07:30:13;;;;;;;13.70;9.35;;;17.30;57.80;;;;;;2173585;54;22187;-68
2021/04/22 07:32:40;;;;;;;14.13;9.43;;;17.60;57.70;;;;;;2149087;54;21013;-68
2021/04/22 07:35:11;;;;;;;13.35;9.40;;;17.70;57.30;;;;;;2123565;54;21659;-68
2021/04/22 07:37:38;;;;;;;11.55;7.90;;;17.90;57.00;;;;;;2381539;54;21535;-67
2021/04/22 07:40:08;;;;;;;12.37;9.20;;;18.10;57.00;;;;;;2154118;54;22256;-69
2021/04/22 07:42:34;;;;;;;16.17;9.95;;;18.30;56.40;;;;;;2157025;54;22672;-68
2021/04/22 07:45:03;;;;;;;12.70;8.75;;;18.50;55.90;;;;;;2158372;54;20923;-67
2021/04/22 07:47:30;;;;;;;12.68;8.50;;;18.60;55.10;;;;;;2125094;54;20983;-67
2021/04/22 07:49:57;;;;;;;14.93;9.07;;;18.60;54.60;;;;;;2147300;54;22120;-68
2021/04/22 07:52:24;;;;;;;12.73;9.13;;;18.60;54.10;;;;;;2115639;54;21726;-69
2021/04/22 07:54:53;;;;;;;12.45;9.18;;;18.60;53.60;;;;;;2384758;54;20987;-66
2021/04/22 07:57:21;;;;;;;14.75;9.05;;;18.50;53.00;;;;;;2360959;54;21026;-68
2021/04/22 07:59:48;;;;;;;13.70;8.80;;;18.40;52.70;;;;;;2158721;55;20989;-67
2021/04/22 08:02:27;;;;;;;13.20;8.82;;;18.30;52.40;;;;;;2172136;54;21848;-68
2021/04/22 08:04:53;;;;;;;13.82;8.57;;;18.20;52.20;;;;;;2182773;54;21624;-67
2021/04/22 08:07:19;;;;;;;11.88;7.87;;;18.10;52.00;;;;;;2180139;54;20931;-68
2021/04/22 08:09:46;;;;;;;12.30;7.10;;;18.00;52.00;;;;;;2397338;54;21448;-69
2021/04/22 08:12:13;;;;;;;16.60;7.15;;;17.80;52.00;;;;;;2182101;54;22233;-67
2021/04/22 08:14:39;;;;;;;10.05;6.82;;;17.80;52.20;;;;;;2169439;54;20979;-68
2021/04/22 08:17:06;;;;;;;9.88;6.43;;;17.80;52.50;;;;;;2431898;54;21758;-66
2021/04/22 08:19:33;;;;;;;11.70;6.68;;;17.80;52.70;;;;;;2197675;54;22025;-69
2021/04/22 08:22:04;;;;;;;17.08;6.93;;;17.90;53.00;;;;;;2169120;54;21724;-67
2021/04/22 08:24:32;;;;;;;11.35;6.70;;;18.00;53.20;;;;;;2171755;54;21511;-66
2021/04/22 08:27:01;;;;;;;13.50;7.35;;;18.10;53.40;;;;;;2174884;54;20967;-69
2021/04/22 08:29:28;;;;;;;10.52;6.80;;;18.30;53.90;;;;;;2173743;54;21574;-68
2021/04/22 08:31:54;;;;;;;10.15;6.70;;;18.40;54.00;;;;;;2174675;54;21543;-67
2021/04/22 08:34:23;;;;;;;10.75;7.05;;;18.60;53.90;;;;;;2184832;54;20992;-68
2021/04/22 08:36:49;;;;;;;10.10;6.93;;;18.70;53.80;;;;;;2180058;55;22178;-68
2021/04/22 08:39:17;;;;;;;11.52;6.18;;;18.90;53.80;;;;;;2179181;54;20992;-68
2021/04/22 08:41:43;;;;;;;9.95;6.55;;;19.00;53.40;;;;;;2194727;54;21636;-69
2021/04/22 08:44:10;;;;;;;11.15;6.75;;;19.10;53.20;;;;;;2183528;54;20952;-68
2021/04/22 08:46:42;;;;;;;12.02;5.75;;;19.10;52.60;;;;;;2393594;54;20991;-68
2021/04/22 08:49:09;;;;;;;10.75;5.55;;;19.20;52.50;;;;;;2179640;54;21027;-70
2021/04/22 08:51:36;;;;;;;9.38;4.80;;;19.20;52.40;;;;;;2387662;54;20991;-70
2021/04/22 08:54:03;;;;;;;12.60;5.40;;;19.30;52.30;;;;;;2179267;54;22358;-69
2021/04/22 08:56:33;;;;;;;8.88;5.00;;;19.30;52.50;;;;;;2188058;54;21034;-69
2021/04/22 08:59:01;;;;;;;8.70;4.93;;;19.40;52.70;;;;;;2211457;54;20932;-67
2021/04/22 09:01:42;;;;;;;9.63;5.72;;;19.50;52.80;;;;;;2202899;54;21016;-69
2021/04/22 09:04:09;;;;;;;7.37;4.75;;;19.70;52.10;;;;;;2240993;54;20969;-68
2021/04/22 09:06:36;;;;;;;10.35;5.35;;;19.80;52.80;;;;;;2366537;53;22074;-69
2021/04/22 09:09:03;;;;;;;8.63;5.57;;;19.90;52.40;;;;;;2365575;53;21524;-67
2021/04/22 09:11:30;;;;;;;10.05;5.30;;;20.00;52.00;;;;;;2231126;55;21053;-69
2021/04/22 09:13:56;;;;;;;9.88;5.75;;;20.10;52.30;;;;;;2238403;54;20991;-69
2021/04/22 09:16:27;;;;;;;10.30;5.53;;;20.20;52.60;;;;;;2466467;54;21000;-67
2021/04/22 09:19:04;;;;;;;9.32;5.62;;;20.40;52.10;;;;;;2263953;54;20971;-69
2021/04/22 09:21:36;;;;;;;9.63;5.43;;;20.50;51.90;;;;;;2236896;54;20959;-67
2021/04/22 09:24:21;;;;;;;11.77;5.23;;;20.60;51.60;;;;;;2255778;54;21800;-69
2021/04/22 09:26:58;;;;;;;9.85;5.10;;;20.80;50.70;;;;;;2238197;54;20963;-68
2021/04/22 09:29:47;;;;;;;9.70;5.60;;;20.80;51.00;;;;;;2195984;55;21036;-67
2021/04/22 09:32:24;;;;;;;8.40;5.30;;;20.80;50.20;;;;;;2225875;54;21010;-66
2021/04/22 09:34:51;;;;;;;7.80;5.07;;;20.90;49.70;;;;;;2193597;54;21982;-68
2021/04/22 09:37:21;;;;;;;9.32;5.30;;;20.80;49.60;;;;;;2188912;54;21570;-68
2021/04/22 09:39:48;;;;;;;11.80;5.32;;;20.70;49.20;;;;;;2186950;54;22036;-68
2021/04/22 09:42:17;;;;;;;8.60;4.90;;;20.60;49.00;;;;;;2382808;54;21019;-67
2021/04/22 09:44:50;;;;;;;8.93;5.18;;;20.50;49.10;;;;;;2363330;53;21606;-68
2021/04/22 09:47:21;;;;;;;7.87;4.70;;;20.50;49.10;;;;;;2109388;54;21920;-67
2021/04/22 09:50:01;;;;;;;11.45;5.60;;;20.40;48.90;;;;;;2118530;54;22023;-68
2021/04/22 09:55:13;;;;;;;8.75;4.65;;;20.50;48.50;;;;;;2208121;54;22761;-67
2021/04/22 09:57:40;;;;;;;10.48;4.12;;;20.50;48.50;;;;;;2170425;55;21459;-67
2021/04/22 10:00:29;;;;;;;11.90;4.65;;;20.50;48.60;;;;;;2198634;54;22286;-68
2021/04/22 10:03:09;;;;;;;8.95;4.75;;;20.50;47.80;;;;;;2158739;55;22354;-67
2021/04/22 10:05:37;;;;;;;8.77;4.00;;;20.50;48.30;;;;;;2420592;53;22476;-68
2021/04/22 10:08:10;;;;;;;7.47;4.55;;;20.50;49.10;;;;;;2215002;54;20943;-66
2021/04/22 10:10:37;;;;;;;7.95;4.00;;;20.60;48.80;;;;;;2249901;53;22099;-68
2021/04/22 10:13:08;;;;;;;9.70;4.45;;;20.70;49.30;;;;;;2293715;53;21362;-68
2021/04/22 10:15:35;;;;;;;8.82;4.28;;;20.80;49.10;;;;;;2368065;53;20937;-66
2021/04/22 10:18:07;;;;;;;7.30;4.28;;;20.80;48.80;;;;;;2284291;53;21009;-66
2021/04/22 10:20:35;;;;;;;10.98;4.70;;;20.90;48.30;;;;;;2511477;53;21046;-67
2021/04/22 10:23:04;;;;;;;7.22;4.80;;;21.00;48.70;;;;;;2250592;53;20941;-69
2021/04/22 10:25:32;;;;;;;7.85;4.90;;;21.00;48.70;;;;;;2277208;53;21892;-69
2021/04/22 10:28:02;;;;;;;9.15;5.20;;;21.10;48.30;;;;;;2335962;53;21013;-69
2021/04/22 10:30:28;;;;;;;7.65;5.18;;;21.20;47.90;;;;;;2314943;53;21025;-67
2021/04/22 10:32:55;;;;;;;11.02;5.35;;;21.10;48.00;;;;;;2328769;53;21464;-68
2021/04/22 10:35:25;;;;;;;8.70;5.40;;;21.20;48.10;;;;;;2322525;53;20941;-69
2021/04/22 10:37:53;;;;;;;7.20;4.30;;;21.20;47.80;;;;;;2551413;52;20997;-68
2021/04/22 10:40:21;;;;;;;9.18;5.10;;;21.20;47.70;;;;;;2309032;53;21010;-67
2021/04/22 10:42:48;;;;;;;12.37;5.37;;;21.20;47.80;;;;;;2557721;52;21795;-68
2021/04/22 10:45:17;;;;;;;8.80;4.78;;;21.20;47.90;;;;;;2283379;53;21028;-66
2021/04/22 10:47:43;;;;;;;8.45;4.47;;;21.30;47.70;;;;;;2278500;53;21379;-69
2021/04/22 10:50:11;;;;;;;10.93;4.35;;;21.30;47.90;;;;;;2269220;52;21510;-68
2021/04/22 10:52:44;;;;;;;8.25;4.78;;;21.40;47.90;;;;;;2482399;53;20973;-67
2021/04/22 10:55:15;;;;;;;;;;;21.50;47.50;;;;;;2241353;54;20990;-66
2021/04/22 10:57:41;;;;;;;7.50;4.10;;;21.60;47.10;;;;;;2226552;53;20144;-66
2021/04/22 11:00:10;;;;;;;8.02;3.95;;;21.60;47.50;;;;;;2200524;54;21874;-67
2021/04/22 11:02:44;;;;;;;9.35;4.28;;;21.60;47.20;;;;;;2215440;54;20943;-67
2021/04/22 11:05:28;;;;;;;8.77;4.45;;;21.70;47.00;;;;;;2411063;53;20947;-68
2021/04/22 11:08:07;;;;;;;7.90;4.05;;;21.70;46.20;;;;;;2203839;54;21035;-68
2021/04/22 11:10:46;;;;;;;6.28;4.00;;;21.80;46.50;;;;;;2230087;53;21931;-68
2021/04/22 11:13:19;;;;;;;8.27;4.43;;;21.80;46.10;;;;;;2218668;53;22443;-67
2021/04/22 11:16:00;;;;;;;7.72;3.62;;;21.80;45.80;;;;;;2214986;53;21859;-68
2021/04/22 11:19:09;;;;;;;9.63;5.18;;;21.80;46.40;;;;;;2218382;53;21568;-68
2021/04/22 11:21:52;;;;;;;7.10;4.43;;;21.80;45.90;;;;;;2184846;53;22517;-68
2021/04/22 11:24:32;;;;;;;9.07;4.80;;;21.80;45.60;;;;;;2214279;53;21087;-68
2021/04/22 11:27:17;;;;;;;9.23;4.60;;;21.80;45.70;;;;;;2226444;53;20959;-67
2021/04/22 11:29:57;;;;;;;9.02;4.20;;;21.90;45.60;;;;;;2239585;53;21093;-68
2021/04/22 11:32:50;;;;;;;10.65;4.82;;;21.90;45.80;;;;;;2464804;53;21921;-67
2021/04/22 11:35:20;;;;;;;10.43;5.07;;;21.90;45.30;;;;;;2231856;53;20956;-67
2021/04/22 11:37:50;;;;;;;8.40;4.40;;;21.80;45.40;;;;;;2479502;53;21465;-69
2021/04/22 11:40:19;;;;;;;11.53;4.73;;;21.80;45.70;;;;;;2244887;53;21668;-65
2021/04/22 11:42:47;;;;;;;8.05;4.87;;;21.80;45.80;;;;;;2245476;53;21629;-67
2021/04/22 11:45:22;;;;;;;10.80;4.60;;;21.80;45.70;;;;;;2240411;53;22141;-67
2021/04/22 11:47:56;;;;;;;7.70;4.80;;;21.90;45.40;;;;;;2234255;53;20964;-68
2021/04/22 11:50:27;;;;;;;8.90;4.65;;;21.90;45.10;;;;;;2249511;53;20956;-66
2021/04/22 11:53:00;;;;;;;9.43;5.15;;;21.90;45.30;;;;;;2441638;53;21556;-67
2021/04/22 11:55:31;;;;;;;9.63;4.90;;;22.00;45.00;;;;;;2291184;53;21693;-68
2021/04/22 11:58:14;;;;;;;7.15;5.05;;;21.90;45.10;;;;;;2274045;53;21475;-67
2021/04/22 12:00:49;;;;;;;9.25;5.07;;;22.00;44.70;;;;;;2264993;54;21051;-68
2021/04/22 12:03:21;;;;;;;10.23;5.20;;;22.00;44.60;;;;;;2287379;53;22242;-68
2021/04/22 12:05:55;;;;;;;7.87;5.03;;;22.00;44.90;;;;;;2277573;53;21596;-67
2021/04/22 12:08:54;;;;;;;9.95;5.05;;;22.10;44.90;;;;;;2279726;54;21467;-67
2021/04/22 12:11:27;;;;;;;9.93;5.10;;;22.10;43.80;;;;;;2263319;53;21031;-67
2021/04/22 12:13:54;;;;;;;7.93;4.62;;;22.10;44.80;;;;;;2290690;53;21012;-66
2021/04/22 12:16:21;;;;;;;10.18;5.20;;;22.10;45.00;;;;;;2266310;53;21868;-66
2021/04/22 12:18:48;;;;;;;9.77;5.55;;;22.20;45.00;;;;;;2253214;53;21566;-67
2021/04/22 12:21:26;;;;;;;7.62;4.60;;;22.20;44.90;;;;;;2253588;53;21021;-67
2021/04/22 12:23:59;;;;;;;8.43;4.70;;;22.30;44.80;;;;;;2222533;54;21084;-67
2021/04/22 12:26:27;;;;;;;7.20;3.42;;;22.40;44.90;;;;;;2231714;53;23179;-67
2021/04/22 12:29:09;;;;;;;23.58;5.07;;;22.50;44.90;;;;;;2246305;53;20960;-67
2021/04/22 12:31:47;;;;;;;7.28;3.92;;;22.60;44.30;;;;;;2200767;54;22028;-67
2021/04/22 12:34:19;;;;;;;7.60;4.75;;;22.70;43.90;;;;;;2240506;53;20962;-67
2021/04/22 12:37:05;;;;;;;7.20;4.72;;;22.80;44.00;;;;;;2209314;55;20951;-68
2021/04/22 12:39:49;;;;;;;7.60;4.55;;;22.90;42.80;;;;;;2465931;53;21003;-67
2021/04/22 12:45:43;;;;;;;7.43;4.12;;;22.90;42.20;;;;;;2310591;53;20945;-67
2021/04/22 12:48:10;;;;;;;9.25;4.45;;;22.90;42.70;;;;;;2339328;53;21853;-67
2021/04/22 12:50:45;;;;;;;8.65;4.32;;;22.80;42.00;;;;;;2269437;53;20977;-67
2021/04/22 12:53:21;;;;;;;5.47;3.22;;;22.80;41.10;;;;;;2261872;53;21397;-67
2021/04/22 12:55:54;;;;;;;7.28;4.05;;;22.70;40.90;;;;;;2268608;53;21743;-68
2021/04/22 12:58:22;;;;;;;9.32;4.03;;;22.60;40.80;;;;;;2366472;53;20994;-68
2021/04/22 13:00:51;;;;;;;6.93;3.55;;;22.50;40.80;;;;;;2223182;53;21470;-67
2021/04/22 13:03:26;;;;;;;8.30;3.90;;;22.40;40.50;;;;;;2216231;53;22310;-68
2021/04/22 13:06:01;;;;;;;6.75;3.25;;;22.30;39.80;;;;;;2223538;53;21048;-67